1864 Tropical Storm NOT_NAMED (1864246N17315)


IBTrACS version v04r00. Visit IBTrACS website for data access.
Please direct all questions to the IBTrACS Q and A forum

Storm track - Intensity - Wind Radii - Intensity Data - Source Data - All data

Summary Information

Storm ID 1864246N17315
Start Sep 2 00Z
Landfall Sep 7 21Z, Sep 9 03Z
Max Intensity 45 kt (Sep 7 12Z)
End Sep 13 12Z
ATCF IDs
Track status Best track data.

Storm track plot

Map of storm track

Intensity plots

Map of storm track

Radial wind information

No radial wind information for this storm


Position and Intensity Table

BASIN ISO_TIME_________ NATURE LAT LON MLC WIND
degrees north degrees east kts
NA 1864-09-02 00:00:00 TS 17.30 -44.80 25
NA 03:00:00 TS 17.35 -45.47 27
NA 06:00:00 TS 17.40 -45.90 30
NA 09:00:00 TS 17.45 -45.95 32
NA 12:00:00 TS 17.50 -46.00 35
NA 15:00:00 TS 17.55 -46.47 35
NA 18:00:00 TS 17.60 -47.10 35
NA 21:00:00 TS 17.66 -47.65 35
NA 1864-09-03 00:00:00 TS 17.70 -48.20 35
NA 03:00:00 TS 17.70 -48.75 35
NA 06:00:00 TS 17.70 -49.30 35
NA 09:00:00 TS 17.74 -49.85 35
NA 12:00:00 TS 17.80 -50.40 35
NA 15:00:00 TS 17.85 -50.95 35
NA 18:00:00 TS 17.90 -51.50 35
NA 21:00:00 TS 17.95 -52.05 35
NA 1864-09-04 00:00:00 TS 18.00 -52.60 35
NA 03:00:00 TS 18.06 -53.15 35
NA 06:00:00 TS 18.10 -53.70 35
NA 09:00:00 TS 18.10 -54.25 35
NA 12:00:00 TS 18.10 -54.80 35
NA 15:00:00 TS 18.14 -55.35 35
NA 18:00:00 TS 18.20 -55.90 35
NA 21:00:00 TS 18.25 -56.46 35
NA 1864-09-05 00:00:00 TS 18.30 -57.00 35
NA 03:00:00 TS 18.35 -57.51 35
NA 06:00:00 TS 18.40 -58.00 35
NA 09:00:00 TS 18.45 -58.50 35
NA 12:00:00 TS 18.50 -59.00 35
NA 15:00:00 TS 18.56 -59.50 35
NA 18:00:00 TS 18.60 -60.00 35
NA 21:00:00 TS 18.60 -60.50 35
NA 1864-09-06 00:00:00 TS 18.60 -61.00 35
NA 03:00:00 TS 18.64 -61.50 35
NA 06:00:00 TS 18.70 -62.00 35
NA 09:00:00 TS 18.74 -62.49 35
NA 12:00:00 TS 18.80 -63.00 35
NA 15:00:00 TS 18.90 -63.58 35
NA 18:00:00 TS 19.00 -64.20 35
NA 21:00:00 TS 19.05 -64.84 35
NA 1864-09-07 00:00:00 TS 19.10 -65.50 35
NA 03:00:00 TS 19.20 -66.19 37
NA 06:00:00 TS 19.30 -66.90 40
NA 09:00:00 TS 19.35 -67.60 42
NA 12:00:00 TS 19.40 -68.30 45
NA 15:00:00 TS 19.50 -69.00 45
NA 18:00:00 TS 19.60 -69.70 45
NA 21:00:00 TS 19.65 -70.40 45
NA 1864-09-08 00:00:00 TS 19.70 -71.10 45
NA 03:00:00 TS 19.79 -71.83 45
NA 06:00:00 TS 19.90 -72.50 45
NA 09:00:00 TS 20.00 -73.09 40
NA 12:00:00 TS 20.10 -73.50 35
NA 15:00:00 TS 20.18 -73.69 32
NA 18:00:00 TS 20.30 -73.70 30
NA 21:00:00 TS 20.45 -73.63 27
NA 1864-09-09 00:00:00 TS 20.70 -73.50 25
NA 03:00:00 TS 21.11 -73.41 25
NA 06:00:00 TS 21.60 -73.30 25
NA 09:00:00 TS 22.07 -73.17 25
NA 12:00:00 TS 22.50 -73.00 25
NA 15:00:00 TS 22.82 -72.77 25
NA 18:00:00 TS 23.10 -72.50 25
NA 21:00:00 TS 23.40 -72.21 25
NA 1864-09-10 00:00:00 TS 23.70 -71.90 25
NA 03:00:00 TS 24.01 -71.61 25
NA 06:00:00 TS 24.30 -71.30 25
NA 09:00:00 TS 24.55 -70.93 22
NA 12:00:00 DS 24.80 -70.60 20
NA 15:00:00 DS 25.10 -70.42 20
NA 18:00:00 DS 25.40 -70.30 20
NA 21:00:00 DS 25.65 -70.15 20
NA 1864-09-11 00:00:00 DS 25.90 -70.00 20
NA 03:00:00 DS 26.20 -69.84 20
NA 06:00:00 DS 26.50 -69.70 20
NA 09:00:00 DS 26.74 -69.61 20
NA 12:00:00 DS 27.00 -69.50 20
NA 15:00:00 DS 27.34 -69.27 20
NA 18:00:00 DS 27.70 -69.00 20
NA 21:00:00 DS 28.01 -68.75 20
NA 1864-09-12 00:00:00 DS 28.30 -68.50 20
NA 03:00:00 DS 28.60 -68.25 20
NA 06:00:00 DS 28.90 -68.00 20
NA 09:00:00 DS 29.18 -67.75 20
NA 12:00:00 DS 29.50 -67.50 20
NA 15:00:00 DS 29.89 -67.25 20
NA 18:00:00 DS 30.30 -67.00 20
NA 21:00:00 DS 30.65 -66.75 20
NA 1864-09-13 00:00:00 DS 31.00 -66.50 20
NA 03:00:00 DS 31.40 -66.25 20
NA 06:00:00 DS 31.80 -66.00 20
NA 09:00:00 DS 32.16 -65.75 20
NA 12:00:00 DS 32.50 -65.50 20

Source Information

Agency Information
USA
TOKYO
CMA
HKO
NEWDELHI
REUNION
BOM
NADI
WELLINGTON
DS824
TD9636
TD9635
NEUMANN
MLC

All available IBTrACS Data

SEASON BASIN SUBBASIN ISO_TIME_________ NATURE LAT LON DIST2LAND LANDFALL IFLAG USA SSHS MLC LAT MLC LON MLC CLASS MLC WIND STORM SPEED STORM DIR
Year degrees north degrees east km km 1 degrees north degrees east kts kts degrees
1864 NA NA 1864-09-02 00:00:00 TS 17.30 -44.80 1599 1565 _____________O -1 17.30 -44.80 TD 25 13 275
1864 NA NA 03:00:00 TS 17.35 -45.47 1569 1548 _____________P -1 17.35 -45.47 TD 27 11 275
1864 NA NA 06:00:00 TS 17.40 -45.90 1548 1543 _____________O -1 17.40 -45.90 TD 30 5 282
1864 NA NA 09:00:00 TS 17.45 -45.95 1543 1543 _____________P -1 17.45 -45.95 TD 32 1 317
1864 NA NA 12:00:00 TS 17.50 -46.00 1553 1533 _____________O -1 17.50 -46.00 TS 35 5 281
1864 NA NA 15:00:00 TS 17.55 -46.47 1538 1510 _____________P -1 17.55 -46.47 TS 35 11 275
1864 NA NA 18:00:00 TS 17.60 -47.10 1510 1489 _____________O -1 17.60 -47.10 TS 35 11 275
1864 NA NA 21:00:00 TS 17.66 -47.65 1499 1473 _____________P -1 17.66 -47.65 TS 35 11 275
1864 NA NA 1864-09-03 00:00:00 TS 17.70 -48.20 1473 1450 _____________O -1 17.70 -48.20 TS 35 10 272
1864 NA NA 03:00:00 TS 17.70 -48.75 1445 1424 _____________P -1 17.70 -48.75 TS 35 10 270
1864 NA NA 06:00:00 TS 17.70 -49.30 1424 1405 _____________O -1 17.70 -49.30 TS 35 10 272
1864 NA NA 09:00:00 TS 17.74 -49.85 1405 1391 _____________P -1 17.74 -49.85 TS 35 11 275
1864 NA NA 12:00:00 TS 17.80 -50.40 1391 1347 _____________O -1 17.80 -50.40 TS 35 11 276
1864 NA NA 15:00:00 TS 17.85 -50.95 1338 1302 _____________P -1 17.85 -50.95 TS 35 11 275
1864 NA NA 18:00:00 TS 17.90 -51.50 1302 1260 _____________O -1 17.90 -51.50 TS 35 11 275
1864 NA NA 21:00:00 TS 17.95 -52.05 1252 1219 _____________P -1 17.95 -52.05 TS 35 11 275
1864 NA NA 1864-09-04 00:00:00 TS 18.00 -52.60 1219 1179 _____________O -1 18.00 -52.60 TS 35 11 276
1864 NA NA 03:00:00 TS 18.06 -53.15 1187 1141 _____________P -1 18.06 -53.15 TS 35 11 275
1864 NA NA 06:00:00 TS 18.10 -53.70 1141 1105 _____________O -1 18.10 -53.70 TS 35 10 272
1864 NA NA 09:00:00 TS 18.10 -54.25 1098 1063 _____________P -1 18.10 -54.25 TS 35 10 270
1864 NA NA 12:00:00 TS 18.10 -54.80 1063 1030 _____________O -1 18.10 -54.80 TS 35 10 272
1864 NA NA 15:00:00 TS 18.14 -55.35 1030 1003 _____________P -1 18.14 -55.35 TS 35 11 275
1864 NA NA 18:00:00 TS 18.20 -55.90 1003 971 _____________O -1 18.20 -55.90 TS 35 11 276
1864 NA NA 21:00:00 TS 18.25 -56.46 960 907 _____________P -1 18.25 -56.46 TS 35 11 275
1864 NA NA 1864-09-05 00:00:00 TS 18.30 -57.00 907 854 _____________O -1 18.30 -57.00 TS 35 10 276
1864 NA NA 03:00:00 TS 18.35 -57.51 854 801 _____________P -1 18.35 -57.51 TS 35 10 276
1864 NA NA 06:00:00 TS 18.40 -58.00 801 749 _____________O -1 18.40 -58.00 TS 35 9 276
1864 NA NA 09:00:00 TS 18.45 -58.50 749 696 _____________P -1 18.45 -58.50 TS 35 10 276
1864 NA NA 12:00:00 TS 18.50 -59.00 696 643 _____________O -1 18.50 -59.00 TS 35 10 276
1864 NA NA 15:00:00 TS 18.56 -59.50 643 590 _____________P -1 18.56 -59.50 TS 35 10 276
1864 NA NA 18:00:00 TS 18.60 -60.00 590 538 _____________O -1 18.60 -60.00 TS 35 9 273
1864 NA NA 21:00:00 TS 18.60 -60.50 538 485 _____________P -1 18.60 -60.50 TS 35 9 270
1864 NA NA 1864-09-06 00:00:00 TS 18.60 -61.00 485 432 _____________O -1 18.60 -61.00 TS 35 9 273
1864 NA NA 03:00:00 TS 18.64 -61.50 432 381 _____________P -1 18.64 -61.50 TS 35 10 276
1864 NA NA 06:00:00 TS 18.70 -62.00 381 328 _____________O -1 18.70 -62.00 TS 35 9 276
1864 NA NA 09:00:00 TS 18.74 -62.49 328 277 _____________P -1 18.74 -62.49 TS 35 10 276
1864 NA CS 12:00:00 TS 18.80 -63.00 277 228 _____________O -1 18.80 -63.00 TS 35 10 279
1864 NA CS 15:00:00 TS 18.90 -63.58 218 162 _____________P -1 18.90 -63.58 TS 35 12 280
1864 NA NA 18:00:00 TS 19.00 -64.20 162 107 _____________O -1 19.00 -64.20 TS 35 12 277
1864 NA NA 21:00:00 TS 19.05 -64.84 107 79 _____________P -1 19.05 -64.84 TS 35 12 275
1864 NA NA 1864-09-07 00:00:00 TS 19.10 -65.50 79 78 _____________O -1 19.10 -65.50 TS 35 13 277
1864 NA NA 03:00:00 TS 19.20 -66.19 89 89 _____________P -1 19.20 -66.19 TS 37 13 279
1864 NA NA 06:00:00 TS 19.30 -66.90 100 100 _____________O -1 19.30 -66.90 TS 40 13 276
1864 NA NA 09:00:00 TS 19.35 -67.60 105 74 _____________P -1 19.35 -67.60 TS 42 13 274
1864 NA NA 12:00:00 TS 19.40 -68.30 74 38 _____________O -1 19.40 -68.30 TS 45 13 276
1864 NA NA 15:00:00 TS 19.50 -69.00 38 22 _____________P -1 19.50 -69.00 TS 45 13 279
1864 NA NA 18:00:00 TS 19.60 -69.70 23 0 _____________O -1 19.60 -69.70 TS 45 13 276
1864 NA NA 21:00:00 TS 19.65 -70.40 0 0 _____________P -1 19.65 -70.40 TS 45 13 274
1864 NA NA 1864-09-08 00:00:00 TS 19.70 -71.10 0 0 _____________O -1 19.70 -71.10 TS 45 14 276
1864 NA NA 03:00:00 TS 19.79 -71.83 0 0 _____________P -1 19.79 -71.83 TS 45 13 279
1864 NA NA 06:00:00 TS 19.90 -72.50 10 0 _____________O -1 19.90 -72.50 TS 45 12 280
1864 NA NA 09:00:00 TS 20.00 -73.09 11 11 _____________P -1 20.00 -73.09 TS 40 10 282
1864 NA NA 12:00:00 TS 20.10 -73.50 35 35 _____________O -1 20.10 -73.50 TS 35 6 288
1864 NA NA 15:00:00 TS 20.18 -73.69 41 41 _____________P -1 20.18 -73.69 TS 32 3 316
1864 NA NA 18:00:00 TS 20.30 -73.70 43 43 _____________O -1 20.30 -73.70 TD 30 3 12
1864 NA NA 21:00:00 TS 20.45 -73.63 55 24 _____________P -1 20.45 -73.63 TD 27 4 25
1864 NA NA 1864-09-09 00:00:00 TS 20.70 -73.50 24 0 _____________O -1 20.70 -73.50 TD 25 7 17
1864 NA NA 03:00:00 TS 21.11 -73.41 0 0 _____________P -1 21.11 -73.41 TD 25 9 12
1864 NA NA 06:00:00 TS 21.60 -73.30 45 45 _____________O -1 21.60 -73.30 TD 25 10 13
1864 NA NA 09:00:00 TS 22.07 -73.17 100 100 _____________P -1 22.07 -73.17 TD 25 9 17
1864 NA NA 12:00:00 TS 22.50 -73.00 145 145 _____________O -1 22.50 -73.00 TD 25 8 26
1864 NA NA 15:00:00 TS 22.82 -72.77 180 180 _____________P -1 22.82 -72.77 TD 25 8 38
1864 NA NA 18:00:00 TS 23.10 -72.50 218 218 _____________O -1 23.10 -72.50 TD 25 8 42
1864 NA NA 21:00:00 TS 23.40 -72.21 259 259 _____________P -1 23.40 -72.21 TD 25 8 43
1864 NA NA 1864-09-10 00:00:00 TS 23.70 -71.90 301 301 _____________O -1 23.70 -71.90 TD 25 8 42
1864 NA NA 03:00:00 TS 24.01 -71.61 344 344 _____________P -1 24.01 -71.61 TD 25 8 42
1864 NA NA 06:00:00 TS 24.30 -71.30 387 387 _____________O -1 24.30 -71.30 TD 25 8 49
1864 NA NA 09:00:00 TS 24.55 -70.93 436 436 _____________P -1 24.55 -70.93 TD 22 8 52
1864 NA NA 12:00:00 DS 24.80 -70.60 471 471 _____________O -1 24.80 -70.60 LO 20 7 40
1864 NA NA 15:00:00 DS 25.10 -70.42 510 510 _____________P -1 25.10 -70.42 LO 20 7 24
1864 NA NA 18:00:00 DS 25.40 -70.30 544 544 _____________O -1 25.40 -70.30 LO 20 6 24
1864 NA NA 21:00:00 DS 25.65 -70.15 573 573 _____________P -1 25.65 -70.15 LO 20 6 29
1864 NA NA 1864-09-11 00:00:00 DS 25.90 -70.00 607 607 _____________O -1 25.90 -70.00 LO 20 6 27
1864 NA NA 03:00:00 DS 26.20 -69.84 646 646 _____________P -1 26.20 -69.84 LO 20 7 24
1864 NA NA 06:00:00 DS 26.50 -69.70 680 680 _____________O -1 26.50 -69.70 LO 20 6 21
1864 NA NA 09:00:00 DS 26.74 -69.61 704 704 _____________P -1 26.74 -69.61 LO 20 5 20
1864 NA NA 12:00:00 DS 27.00 -69.50 738 738 _____________O -1 27.00 -69.50 LO 20 7 27
1864 NA NA 15:00:00 DS 27.34 -69.27 777 777 _____________P -1 27.34 -69.27 LO 20 8 32
1864 NA NA 18:00:00 DS 27.70 -69.00 831 831 _____________O -1 27.70 -69.00 LO 20 8 35
1864 NA NA 21:00:00 DS 28.01 -68.75 875 875 _____________P -1 28.01 -68.75 LO 20 7 36
1864 NA NA 1864-09-12 00:00:00 DS 28.30 -68.50 913 913 _____________O -1 28.30 -68.50 LO 20 7 37
1864 NA NA 03:00:00 DS 28.60 -68.25 957 957 _____________P -1 28.60 -68.25 LO 20 7 36
1864 NA NA 06:00:00 DS 28.90 -68.00 996 996 _____________O -1 28.90 -68.00 LO 20 7 37
1864 NA NA 09:00:00 DS 29.18 -67.75 1028 1021 _____________P -1 29.18 -67.75 LO 20 7 36
1864 NA NA 12:00:00 DS 29.50 -67.50 1021 1007 _____________O -1 29.50 -67.50 LO 20 8 32
1864 NA NA 15:00:00 DS 29.89 -67.25 1015 999 _____________P -1 29.89 -67.25 LO 20 9 28
1864 NA NA 18:00:00 DS 30.30 -67.00 999 992 _____________O -1 30.30 -67.00 LO 20 9 30
1864 NA NA 21:00:00 DS 30.65 -66.75 1001 987 _____________P -1 30.65 -66.75 LO 20 8 32
1864 NA NA 1864-09-13 00:00:00 DS 31.00 -66.50 990 981 _____________O -1 31.00 -66.50 LO 20 9 30
1864 NA NA 03:00:00 DS 31.40 -66.25 989 977 _____________P -1 31.40 -66.25 LO 20 9 28
1864 NA NA 06:00:00 DS 31.80 -66.00 982 976 _____________O -1 31.80 -66.00 LO 20 9 29
1864 NA NA 09:00:00 DS 32.16 -65.75 977 977 _____________P -1 32.16 -65.75 LO 20 8 31
1864 NA NA 12:00:00 DS 32.50 -65.50 988 _____________O -1 32.50 -65.50 LO 20 8 32